createdAt,value
2022-12-11T00:00:38.399Z,101071.19
2022-12-11T00:03:04.852Z,101075.88
2022-12-11T00:05:31.236Z,101071.00
2022-12-11T00:07:58.003Z,101078.25
2022-12-11T00:10:24.740Z,101074.13
2022-12-11T00:12:51.024Z,101074.28
2022-12-11T00:15:17.366Z,101069.56
2022-12-11T00:17:43.652Z,101072.34
2022-12-11T00:20:10.097Z,101068.88
2022-12-11T00:22:36.391Z,101071.44
2022-12-11T00:25:02.742Z,101068.06
2022-12-11T00:27:29.114Z,101067.19
2022-12-11T00:29:55.373Z,101060.44
2022-12-11T00:32:21.621Z,101046.75
2022-12-11T00:34:47.903Z,101048.25
2022-12-11T00:37:14.359Z,101053.97
2022-12-11T00:39:40.616Z,101051.59
2022-12-11T00:42:07.689Z,101053.59
2022-12-11T00:44:34.161Z,101054.50
2022-12-11T00:47:00.430Z,101057.06
2022-12-11T00:49:26.696Z,101055.66
2022-12-11T00:51:53.116Z,101054.78
2022-12-11T00:54:19.431Z,101047.44
2022-12-11T00:56:45.689Z,101049.31
2022-12-11T00:59:11.946Z,101052.00
2022-12-11T01:01:38.808Z,101053.66
2022-12-11T01:04:05.186Z,101056.25
2022-12-11T01:06:31.492Z,101057.22
2022-12-11T01:09:20.734Z,101057.22
2022-12-11T01:11:47.044Z,101052.38
2022-12-11T01:14:14.291Z,101060.13
2022-12-11T01:16:40.571Z,101050.69
2022-12-11T01:19:06.948Z,101060.50
2022-12-11T01:21:33.258Z,101043.53
2022-12-11T01:23:59.724Z,101041.84
2022-12-11T01:26:26.003Z,101053.94
2022-12-11T01:28:52.484Z,101043.19
2022-12-11T01:31:20.026Z,101049.16
2022-12-11T01:33:46.303Z,101051.22
2022-12-11T01:36:14.584Z,101049.56
2022-12-11T01:38:40.922Z,101047.06
2022-12-11T01:41:10.233Z,101046.28
2022-12-11T01:43:56.071Z,101049.66
2022-12-11T01:46:22.357Z,101048.75
2022-12-11T01:48:48.632Z,101052.13
2022-12-11T01:51:14.935Z,101049.34
2022-12-11T01:53:44.416Z,101050.44
2022-12-11T01:56:10.953Z,101047.06
2022-12-11T01:58:39.894Z,101055.88
2022-12-11T02:01:06.174Z,101050.13
2022-12-11T02:03:32.594Z,101044.44
2022-12-11T02:05:59.935Z,101050.69
2022-12-11T02:08:26.465Z,101042.94
2022-12-11T02:11:01.363Z,101045.00
2022-12-11T02:13:34.070Z,101048.50
2022-12-11T02:16:00.359Z,101043.22
2022-12-11T02:18:26.675Z,101043.13
2022-12-11T02:21:03.158Z,101040.56
2022-12-11T02:23:38.368Z,101049.16
2022-12-11T02:26:10.633Z,101052.56
2022-12-11T02:28:40.028Z,101048.28
2022-12-11T02:31:21.694Z,101045.53
2022-12-11T02:33:54.597Z,101047.38
2022-12-11T02:36:23.431Z,101052.75
2022-12-11T02:38:52.101Z,101063.19
2022-12-11T02:41:20.118Z,101059.88
2022-12-11T02:43:47.948Z,101060.09
2022-12-11T02:46:15.123Z,101051.53
2022-12-11T02:48:42.565Z,101049.84
2022-12-11T02:51:09.952Z,101049.75
2022-12-11T02:53:38.506Z,101050.53
2022-12-11T02:56:30.815Z,101038.41
2022-12-11T02:59:00.192Z,101046.88
2022-12-11T03:01:27.002Z,101042.13
2022-12-11T03:03:54.096Z,101050.41
2022-12-11T03:06:21.871Z,101047.16
2022-12-11T03:08:51.745Z,101047.59
2022-12-11T03:11:18.015Z,101046.00
2022-12-11T03:13:44.304Z,101056.63
2022-12-11T03:16:13.900Z,101051.69
2022-12-11T03:18:46.089Z,101052.88
2022-12-11T03:21:21.692Z,101058.38
2022-12-11T03:23:54.560Z,101043.97
2022-12-11T03:26:21.777Z,101046.94
2022-12-11T03:28:48.075Z,101059.16
2022-12-11T03:31:21.967Z,101054.47
2022-12-11T03:33:49.520Z,101052.97
2022-12-11T03:36:24.368Z,101062.88
2022-12-11T03:38:53.771Z,101057.19
2022-12-11T03:41:21.978Z,101058.69
2022-12-11T03:43:51.311Z,101054.63
2022-12-11T03:46:19.712Z,101051.28
2022-12-11T03:48:46.623Z,101053.28
2022-12-11T03:51:13.469Z,101050.81
2022-12-11T03:53:39.794Z,101053.38
2022-12-11T03:56:08.292Z,101045.53
2022-12-11T03:58:34.602Z,101045.44
2022-12-11T04:01:01.081Z,101048.72
2022-12-11T04:03:27.447Z,101052.56
2022-12-11T04:05:55.173Z,101045.22
2022-12-11T04:08:22.034Z,101050.97
2022-12-11T04:11:09.368Z,101048.75
2022-12-11T04:13:35.931Z,101038.94
2022-12-11T04:16:02.215Z,101037.94
2022-12-11T04:18:47.350Z,101030.59
2022-12-11T04:21:36.363Z,101030.09
2022-12-11T04:24:17.446Z,101025.28
2022-12-11T04:26:44.824Z,101014.59
2022-12-11T04:29:11.163Z,101015.19
2022-12-11T04:31:37.413Z,101024.06
2022-12-11T04:34:03.751Z,101031.22
2022-12-11T04:36:30.043Z,101029.13
2022-12-11T04:38:56.308Z,101027.91
2022-12-11T04:41:22.584Z,101031.03
2022-12-11T04:43:48.832Z,101036.97
2022-12-11T04:46:19.933Z,101034.53
2022-12-11T04:48:46.392Z,101029.72
2022-12-11T04:51:12.743Z,101031.19
2022-12-11T04:53:39.244Z,101046.50
2022-12-11T04:56:06.506Z,101035.25
2022-12-11T04:58:32.783Z,101031.75
2022-12-11T05:00:59.039Z,101037.13
2022-12-11T05:03:25.281Z,101036.91
2022-12-11T05:05:51.963Z,101028.84
2022-12-11T05:08:21.331Z,101034.78
2022-12-11T05:11:01.636Z,101025.06
2022-12-11T05:13:29.003Z,101026.19
2022-12-11T05:15:56.827Z,101030.25
2022-12-11T05:18:23.499Z,101016.38
2022-12-11T05:21:00.544Z,101019.72
2022-12-11T05:23:26.978Z,101023.78
2022-12-11T05:25:54.766Z,101027.78
2022-12-11T05:28:22.064Z,101029.25
2022-12-11T05:30:48.351Z,101036.97
2022-12-11T05:33:14.621Z,101030.03
2022-12-11T05:35:46.580Z,101039.66
2022-12-11T05:38:12.821Z,101027.13
2022-12-11T05:40:39.083Z,101033.84
2022-12-11T05:43:05.365Z,101028.25
2022-12-11T05:45:31.650Z,101028.81
2022-12-11T05:47:58.009Z,101024.47
2022-12-11T05:50:24.250Z,101038.78
2022-12-11T05:52:50.505Z,101032.72
2022-12-11T05:55:17.228Z,101033.94
2022-12-11T05:57:43.469Z,101040.56
2022-12-11T06:00:11.467Z,101037.75
2022-12-11T06:02:37.818Z,101025.47
2022-12-11T06:05:04.312Z,101027.13
2022-12-11T06:07:30.667Z,101027.91
2022-12-11T06:09:56.998Z,101030.72
2022-12-11T06:12:23.342Z,101036.84
2022-12-11T06:14:49.607Z,101028.25
2022-12-11T06:17:15.878Z,101033.97
2022-12-11T06:19:42.150Z,101033.50
2022-12-11T06:22:08.647Z,101035.81
2022-12-11T06:24:34.999Z,101039.28
2022-12-11T06:27:01.251Z,101043.31
2022-12-11T06:29:27.558Z,101035.38
2022-12-11T06:31:53.873Z,101045.09
2022-12-11T06:34:20.146Z,101046.31
2022-12-11T06:36:46.400Z,101045.84
2022-12-11T06:39:12.634Z,101036.03
2022-12-11T06:41:38.912Z,101038.50
2022-12-11T06:44:05.193Z,101045.94
2022-12-11T06:46:31.432Z,101045.94
2022-12-11T06:48:57.732Z,101048.50
2022-12-11T06:51:24.156Z,101054.31
2022-12-11T06:53:54.402Z,101051.50
2022-12-11T06:56:20.966Z,101043.13
2022-12-11T06:58:47.227Z,101043.13
2022-12-11T07:01:17.757Z,101050.59
2022-12-11T07:03:44.527Z,101052.28
2022-12-11T07:06:10.920Z,101058.88
2022-12-11T07:08:37.197Z,101057.84
2022-12-11T07:11:13.929Z,101051.06
2022-12-11T07:13:41.932Z,101061.31
2022-12-11T07:16:10.945Z,101061.19
2022-12-11T07:18:38.300Z,101064.31
2022-12-11T07:21:05.748Z,101066.63
2022-12-11T07:23:32.151Z,101067.31
2022-12-11T07:25:58.416Z,101068.09
2022-12-11T07:28:24.957Z,101067.19
2022-12-11T07:30:51.252Z,101077.56
2022-12-11T07:33:17.547Z,101080.91
2022-12-11T07:35:44.065Z,101077.56
2022-12-11T07:38:10.312Z,101077.44
2022-12-11T07:40:36.775Z,101079.00
2022-12-11T07:43:03.034Z,101085.94
2022-12-11T07:45:29.610Z,101084.25
2022-12-11T07:47:55.935Z,101085.03
2022-12-11T07:50:22.299Z,101085.03
2022-12-11T07:52:48.563Z,101091.63
2022-12-11T07:55:14.841Z,101089.06
2022-12-11T07:57:41.124Z,101091.75
2022-12-11T08:00:07.698Z,101092.13
2022-12-11T08:02:37.175Z,101089.22
2022-12-11T08:05:04.020Z,101088.81
2022-12-11T08:07:30.327Z,101088.38
2022-12-11T08:09:56.562Z,101087.16
2022-12-11T08:12:22.858Z,101091.09
2022-12-11T08:14:49.112Z,101084.84
2022-12-11T08:17:15.453Z,101082.97
2022-12-11T08:19:41.947Z,101085.34
2022-12-11T08:22:08.206Z,101090.16
2022-12-11T08:24:34.505Z,101080.09
2022-12-11T08:27:00.894Z,101081.41
2022-12-11T08:29:27.155Z,101082.56
2022-12-11T08:31:53.550Z,101071.38
2022-12-11T08:34:19.824Z,101067.25
2022-12-11T08:36:46.121Z,101066.34
2022-12-11T08:39:12.425Z,101066.47
2022-12-11T08:41:38.701Z,101065.69
2022-12-11T08:44:06.121Z,101070.81
2022-12-11T08:46:32.797Z,101060.75
2022-12-11T08:48:59.216Z,101058.84
2022-12-11T08:51:26.694Z,101060.97
2022-12-11T08:53:57.365Z,101057.91
2022-12-11T08:56:24.054Z,101050.19
2022-12-11T08:58:50.852Z,101071.84
2022-12-11T09:01:24.608Z,101046.94
2022-12-11T09:03:51.737Z,101058.88
2022-12-11T09:06:19.206Z,101064.25
2022-12-11T09:08:51.885Z,101066.16
2022-12-11T09:11:20.676Z,101061.34
2022-12-11T09:13:47.006Z,101061.16
2022-12-11T09:16:15.625Z,101062.81
2022-12-11T09:18:42.543Z,101056.50
2022-12-11T09:21:13.375Z,101050.31
2022-12-11T09:23:40.127Z,101049.81
2022-12-11T09:26:07.679Z,101043.22
2022-12-11T09:28:34.462Z,101051.34
2022-12-11T09:31:00.782Z,101049.97
2022-12-11T09:33:27.466Z,101051.94
2022-12-11T09:35:57.343Z,101051.44
2022-12-11T09:38:23.604Z,101057.53
2022-12-11T09:40:49.904Z,101049.69
2022-12-11T09:43:34.917Z,101040.28
2022-12-11T09:46:03.338Z,101038.94
2022-12-11T09:48:32.915Z,101037.91
2022-12-11T09:51:02.344Z,101031.75
2022-12-11T09:53:34.600Z,101031.34
2022-12-11T09:56:03.884Z,101021.41
2022-12-11T09:58:30.108Z,101027.13
2022-12-11T10:01:02.469Z,101030.03
2022-12-11T10:03:34.208Z,101030.13
2022-12-11T10:06:04.509Z,101028.72
2022-12-11T10:08:42.277Z,101026.31
2022-12-11T10:11:27.044Z,101023.91
2022-12-11T10:13:53.299Z,101018.94
2022-12-11T10:16:26.630Z,101013.97
2022-12-11T10:18:53.040Z,101014.28
2022-12-11T10:21:19.722Z,101000.66
2022-12-11T10:23:50.593Z,101007.78
2022-12-11T10:26:18.769Z,101005.22
2022-12-11T10:28:45.448Z,100997.63
2022-12-11T10:31:20.589Z,100995.34
2022-12-11T10:33:52.996Z,100997.75
2022-12-11T10:36:25.665Z,100992.88
2022-12-11T10:38:52.018Z,101002.78
2022-12-11T10:41:20.962Z,100997.88
2022-12-11T10:43:48.790Z,100995.38
2022-12-11T10:46:25.514Z,100999.81
2022-12-11T10:48:56.500Z,100999.31
2022-12-11T10:51:24.584Z,100992.44
2022-12-11T10:53:51.695Z,100985.56
2022-12-11T10:56:25.259Z,100993.59
2022-12-11T10:58:52.079Z,100997.34
2022-12-11T11:01:21.351Z,100990.84
2022-12-11T11:03:53.644Z,100989.50
2022-12-11T11:06:21.079Z,100992.44
2022-12-11T11:08:48.836Z,100992.53
2022-12-11T11:11:21.019Z,100983.06
2022-12-11T11:13:47.423Z,100990.91
2022-12-11T11:16:15.813Z,100978.16
2022-12-11T11:18:43.401Z,100978.59
2022-12-11T11:21:16.259Z,100976.38
2022-12-11T11:23:46.279Z,100981.16
2022-12-11T11:26:15.792Z,100969.63
2022-12-11T11:29:02.346Z,100967.03
2022-12-11T11:31:33.698Z,100961.59
2022-12-11T11:34:03.846Z,100950.19
2022-12-11T11:36:32.198Z,100949.22
2022-12-11T11:39:04.247Z,100947.22
2022-12-11T11:41:49.360Z,100945.88
2022-12-11T11:44:18.892Z,100945.72
2022-12-11T11:46:54.833Z,100939.53
2022-12-11T11:49:21.086Z,100934.38
2022-12-11T11:52:01.643Z,100932.16
2022-12-11T11:54:40.926Z,100932.66
2022-12-11T11:57:22.516Z,100931.47
2022-12-11T11:59:57.785Z,100929.28
2022-12-11T12:02:24.095Z,100923.38
2022-12-11T12:04:51.286Z,100925.19
2022-12-11T12:07:35.363Z,100926.78
2022-12-11T12:10:01.630Z,100932.31
2022-12-11T12:12:38.993Z,100925.69
2022-12-11T12:15:20.520Z,100921.81
2022-12-11T12:17:50.596Z,100927.81
2022-12-11T12:20:27.294Z,100932.25
2022-12-11T12:23:12.515Z,100927.16
2022-12-11T12:25:42.942Z,100925.44
2022-12-11T12:28:18.981Z,100927.22
2022-12-11T12:31:04.430Z,100931.69
2022-12-11T12:33:35.542Z,100930.88
2022-12-11T12:36:06.662Z,100933.69
2022-12-11T12:38:56.711Z,100928.69
2022-12-11T12:41:29.081Z,100932.66
2022-12-11T12:44:12.360Z,100928.88
2022-12-11T12:46:47.783Z,100929.25
2022-12-11T12:49:16.784Z,100926.50
2022-12-11T12:51:44.383Z,100925.28
2022-12-11T12:54:14.525Z,100920.69
2022-12-11T12:56:43.522Z,100925.84
2022-12-11T12:59:20.067Z,100916.72
2022-12-11T13:01:48.072Z,100917.75
2022-12-11T13:04:54.413Z,100918.47
2022-12-11T13:07:19.221Z,100910.72
2022-12-11T13:09:55.886Z,100911.97
2022-12-11T13:12:30.824Z,100919.03
2022-12-11T13:14:57.323Z,100918.38
2022-12-11T13:17:35.198Z,100917.47
2022-12-11T13:20:14.194Z,100916.78
2022-12-11T13:22:48.010Z,100917.91
2022-12-11T13:25:22.084Z,100923.66
2022-12-11T13:27:49.907Z,100918.88
2022-12-11T13:30:22.381Z,100925.63
2022-12-11T13:33:04.036Z,100927.78
2022-12-11T13:35:32.107Z,100931.72
2022-12-11T13:38:05.233Z,100929.66
2022-12-11T13:40:39.806Z,100933.97
2022-12-11T13:43:08.963Z,100925.75
2022-12-11T13:45:35.320Z,100940.16
2022-12-11T13:48:01.792Z,100940.59
2022-12-11T13:50:29.451Z,100948.91
2022-12-11T13:52:57.069Z,100943.50
2022-12-11T13:55:25.493Z,100948.31
2022-12-11T13:57:51.963Z,100956.69
2022-12-11T14:00:24.610Z,100952.41
2022-12-11T14:02:52.495Z,100946.22
2022-12-11T14:05:19.644Z,100948.38
2022-12-11T14:07:49.944Z,100952.78
2022-12-11T14:10:24.233Z,100954.75
2022-12-11T14:12:53.065Z,100951.63
2022-12-11T14:15:19.485Z,100949.47
2022-12-11T14:17:51.488Z,100951.81
2022-12-11T14:20:32.137Z,100952.00
2022-12-11T14:23:15.589Z,100952.25
2022-12-11T14:25:41.870Z,100954.91
2022-12-11T14:28:16.758Z,100945.69
2022-12-11T14:30:52.347Z,100950.44
2022-12-11T14:33:20.605Z,100956.91
2022-12-11T14:35:47.149Z,100961.00
2022-12-11T14:38:18.725Z,100952.91
2022-12-11T14:40:46.988Z,100959.59
2022-12-11T14:43:31.240Z,100959.59
2022-12-11T14:45:59.110Z,100959.59
2022-12-11T14:48:28.271Z,100949.19
2022-12-11T14:50:57.626Z,100954.44
2022-12-11T14:53:36.052Z,100946.66
2022-12-11T14:56:05.291Z,100947.84
2022-12-11T14:58:33.106Z,100953.06
2022-12-11T15:01:03.886Z,100948.63
2022-12-11T15:03:31.751Z,100947.47
2022-12-11T15:05:58.084Z,100948.75
2022-12-11T15:08:29.201Z,100943.25
2022-12-11T15:11:01.663Z,100947.44
2022-12-11T15:13:28.201Z,100946.31
2022-12-11T15:15:55.508Z,100950.34
2022-12-11T15:18:48.016Z,100953.47
2022-12-11T15:21:15.949Z,100957.41
2022-12-11T15:23:48.312Z,100955.44
2022-12-11T15:26:14.864Z,100952.84
2022-12-11T15:28:41.318Z,100952.75
2022-12-11T15:31:22.202Z,100958.66
2022-12-11T15:33:48.583Z,100957.50
2022-12-11T15:36:32.667Z,100955.56
2022-12-11T15:38:59.048Z,100955.38
2022-12-11T15:41:25.582Z,100954.47
2022-12-11T15:43:58.375Z,100954.47
2022-12-11T15:46:25.886Z,100957.00
2022-12-11T15:48:52.414Z,100959.38
2022-12-11T15:51:18.777Z,100973.13
2022-12-11T15:53:45.073Z,100956.53
2022-12-11T15:56:14.984Z,100970.06
2022-12-11T15:58:41.540Z,100963.94
2022-12-11T16:01:07.837Z,100965.63
2022-12-11T16:03:34.127Z,100961.06
2022-12-11T16:06:00.414Z,100968.81
2022-12-11T16:08:26.789Z,100968.63
2022-12-11T16:10:54.497Z,100969.34
2022-12-11T16:13:21.257Z,100955.56
2022-12-11T16:15:48.353Z,100962.41
2022-12-11T16:18:18.945Z,100966.63
2022-12-11T16:20:45.815Z,100962.22
2022-12-11T16:23:13.240Z,100969.72
2022-12-11T16:25:40.844Z,100965.25
2022-12-11T16:28:07.866Z,100967.84
2022-12-11T16:30:35.339Z,100960.97
2022-12-11T16:33:04.759Z,100967.91
2022-12-11T16:35:33.540Z,100967.91
2022-12-11T16:37:59.977Z,100956.91
2022-12-11T16:40:26.417Z,100964.72
2022-12-11T16:42:53.081Z,100966.50
2022-12-11T16:45:23.875Z,100962.41
2022-12-11T16:47:50.306Z,100970.25
2022-12-11T16:50:17.342Z,100962.50
2022-12-11T16:52:44.623Z,100963.47
2022-12-11T16:55:12.027Z,100963.66
2022-12-11T16:57:39.022Z,100966.34
2022-12-11T17:00:06.083Z,100971.69
2022-12-11T17:02:32.996Z,100977.91
2022-12-11T17:04:59.303Z,100977.28
2022-12-11T17:07:26.128Z,100971.50
2022-12-11T17:09:52.369Z,100971.50
2022-12-11T17:12:18.624Z,100974.19
2022-12-11T17:14:44.904Z,100971.69
2022-12-11T17:17:11.155Z,100974.38
2022-12-11T17:19:37.451Z,100976.31
2022-12-11T17:22:04.503Z,100970.53
2022-12-11T17:24:30.774Z,100979.34
2022-12-11T17:26:57.070Z,100971.75
2022-12-11T17:29:23.384Z,100978.00
2022-12-11T17:31:49.640Z,100971.19
2022-12-11T17:34:15.903Z,100978.00
2022-12-11T17:36:42.215Z,100977.66
2022-12-11T17:39:08.483Z,100976.38
2022-12-11T17:41:34.738Z,100978.63
2022-12-11T17:44:01.007Z,100981.94
2022-12-11T17:46:27.291Z,100978.34
2022-12-11T17:48:53.668Z,100975.53
2022-12-11T17:51:24.385Z,100972.66
2022-12-11T17:53:51.004Z,100975.00
2022-12-11T17:56:17.708Z,100968.72
2022-12-11T17:58:44.221Z,100983.16
2022-12-11T18:01:12.301Z,100973.47
2022-12-11T18:03:39.339Z,100975.94
2022-12-11T18:06:07.049Z,100976.66
2022-12-11T18:08:33.372Z,100968.63
2022-12-11T18:11:13.397Z,100966.75
2022-12-11T18:13:39.711Z,100963.91
2022-12-11T18:16:07.777Z,100968.78
2022-12-11T18:18:34.204Z,100971.09
2022-12-11T18:21:00.471Z,100968.06
2022-12-11T18:23:27.117Z,100969.38
2022-12-11T18:25:53.347Z,100970.72
2022-12-11T18:28:19.672Z,100975.41
2022-12-11T18:30:45.922Z,100976.78
2022-12-11T18:33:13.068Z,100985.34
2022-12-11T18:35:39.619Z,100977.50
2022-12-11T18:38:05.920Z,100979.22
2022-12-11T18:40:32.422Z,100982.66
2022-12-11T18:42:58.759Z,100977.81
2022-12-11T18:45:25.047Z,100968.28
2022-12-11T18:47:51.900Z,100975.94
2022-12-11T18:50:18.374Z,100961.25
2022-12-11T18:52:44.664Z,100963.03
2022-12-11T18:55:11.285Z,100969.00
2022-12-11T18:57:37.718Z,100969.00
2022-12-11T19:00:07.290Z,100970.75
2022-12-11T19:02:34.540Z,100973.50
2022-12-11T19:05:01.015Z,100980.66
2022-12-11T19:07:27.299Z,100980.03
2022-12-11T19:09:53.568Z,100985.59
2022-12-11T19:12:19.886Z,100985.16
2022-12-11T19:14:46.141Z,100985.53
2022-12-11T19:17:12.406Z,100983.22
2022-12-11T19:19:38.749Z,100984.38
2022-12-11T19:22:05.043Z,100976.84
2022-12-11T19:24:31.310Z,100982.44
2022-12-11T19:26:57.878Z,100981.81
2022-12-11T19:29:29.499Z,100986.38
2022-12-11T19:31:56.378Z,100978.09
2022-12-11T19:34:23.248Z,100975.63
2022-12-11T19:36:49.853Z,100976.56
2022-12-11T19:39:16.698Z,100972.31
2022-12-11T19:41:42.976Z,100978.97
2022-12-11T19:44:09.431Z,100974.00
2022-12-11T19:46:35.811Z,100979.78
2022-12-11T19:49:02.328Z,100979.53
2022-12-11T19:51:31.207Z,100984.59
2022-12-11T19:53:58.542Z,100977.72
2022-12-11T19:56:24.851Z,100982.97
2022-12-11T19:58:51.357Z,100980.41
2022-12-11T20:01:25.914Z,100979.53
2022-12-11T20:03:53.068Z,100981.41
2022-12-11T20:06:19.691Z,100982.25
2022-12-11T20:08:46.382Z,100977.91
2022-12-11T20:11:17.872Z,100971.59
2022-12-11T20:13:48.109Z,100974.69
2022-12-11T20:16:14.895Z,100978.59
2022-12-11T20:18:41.571Z,100978.16
2022-12-11T20:21:09.102Z,100982.22
2022-12-11T20:23:35.471Z,100976.72
2022-12-11T20:26:16.206Z,100972.16
2022-12-11T20:28:42.863Z,100975.25
2022-12-11T20:31:14.965Z,100972.38
2022-12-11T20:33:46.188Z,100968.63
2022-12-11T20:36:13.919Z,100971.03
2022-12-11T20:38:41.560Z,100980.28
2022-12-11T20:41:15.228Z,100978.13
2022-12-11T20:43:41.894Z,100982.91
2022-12-11T20:46:08.884Z,100982.41
2022-12-11T20:48:35.373Z,100987.22
2022-12-11T20:51:02.557Z,100983.34
2022-12-11T20:53:28.855Z,100978.69
2022-12-11T20:55:55.635Z,100981.28
2022-12-11T20:58:21.951Z,100988.03
2022-12-11T21:00:48.741Z,100980.09
2022-12-11T21:03:15.025Z,100976.34
2022-12-11T21:05:42.137Z,100975.13
2022-12-11T21:08:09.202Z,100981.78
2022-12-11T21:10:35.851Z,100978.91
2022-12-11T21:13:02.564Z,100981.31
2022-12-11T21:15:28.790Z,100976.75
2022-12-11T21:17:55.682Z,100984.38
2022-12-11T21:20:24.342Z,100988.47
2022-12-11T21:22:50.951Z,100990.25
2022-12-11T21:25:17.652Z,100990.34
2022-12-11T21:27:43.985Z,100986.97
2022-12-11T21:30:10.568Z,100990.44
2022-12-11T21:32:36.844Z,100993.31
2022-12-11T21:35:03.151Z,100991.91
2022-12-11T21:37:29.415Z,100983.56
2022-12-11T21:39:56.947Z,100983.78
2022-12-11T21:42:23.642Z,100988.03
2022-12-11T21:45:37.502Z,100990.72
2022-12-11T21:47:36.391Z,100978.31
2022-12-11T21:50:02.688Z,100981.56
2022-12-11T21:52:29.866Z,100983.22
2022-12-11T21:54:56.598Z,100974.56
2022-12-11T21:57:26.585Z,100981.88
2022-12-11T21:59:53.277Z,100980.09
2022-12-11T22:02:19.752Z,100972.25
2022-12-11T22:04:47.418Z,100985.09
2022-12-11T22:07:14.902Z,100988.78
2022-12-11T22:09:41.153Z,100986.41
2022-12-11T22:12:07.499Z,100983.25
2022-12-11T22:14:34.555Z,100988.63
2022-12-11T22:17:00.893Z,100984.94
2022-12-11T22:19:32.287Z,100988.03
2022-12-11T22:21:59.045Z,100998.06
2022-12-11T22:24:25.297Z,100988.03
2022-12-11T22:26:51.634Z,101000.31
2022-12-11T22:29:17.873Z,100988.13
2022-12-11T22:31:44.212Z,100988.72
2022-12-11T22:34:10.475Z,100980.03
2022-12-11T22:36:36.858Z,100987.06
2022-12-11T22:39:03.295Z,100978.53
2022-12-11T22:41:31.146Z,100982.28
2022-12-11T22:43:57.842Z,100973.66
2022-12-11T22:46:25.804Z,100981.41
2022-12-11T22:48:52.499Z,100985.75
2022-12-11T22:51:19.146Z,100989.03
2022-12-11T22:53:45.433Z,100987.97
2022-12-11T22:56:12.627Z,100983.41
2022-12-11T22:58:41.864Z,100993.09
2022-12-11T23:01:12.606Z,100995.47
2022-12-11T23:03:38.993Z,100992.00
2022-12-11T23:06:07.666Z,101007.56
2022-12-11T23:08:34.451Z,101008.84
2022-12-11T23:11:00.824Z,101000.13
2022-12-11T23:13:27.085Z,101010.44
2022-12-11T23:15:53.328Z,101007.84
2022-12-11T23:18:19.620Z,101001.69
2022-12-11T23:20:45.873Z,101003.47
2022-12-11T23:23:12.129Z,101007.84
2022-12-11T23:25:38.401Z,101007.75
2022-12-11T23:28:04.940Z,101011.59
2022-12-11T23:30:31.293Z,101008.91
2022-12-11T23:32:57.637Z,101015.03
2022-12-11T23:35:23.881Z,101006.03
2022-12-11T23:37:50.157Z,101004.97
2022-12-11T23:40:16.556Z,101002.03
2022-12-11T23:42:42.883Z,101003.28
2022-12-11T23:45:09.518Z,101004.81
2022-12-11T23:47:36.032Z,101001.03
2022-12-11T23:50:02.282Z,101010.75
2022-12-11T23:52:28.531Z,101012.63
2022-12-11T23:54:55.306Z,101014.53
2022-12-11T23:57:21.813Z,101016.72
2022-12-11T23:59:48.095Z,101017.41
